Time;durP1;ratioP1;P1;durP2;ratioP2;P2;SDS_P1;SDS_P2;PMS_P1;PMS_P2;Temp;Humidity;BMP_temperature;BMP_pressure;BME280_temperature;BME280_humidity;BME280_pressure;Samples;Min_cycle;Max_cycle;Signal;HPM_P1;HPM_P2
2022/04/14 00:00:09;;;;;;;14.53;8.77;;;13.40;1.00;;;;;;5072964;28;20229;-57
2022/04/14 00:02:36;;;;;;;13.83;8.53;;;13.40;3.70;;;;;;5072839;28;20237;-58
2022/04/14 00:05:02;;;;;;;12.77;8.33;;;13.40;10.10;;;;;;5072874;28;20228;-58
2022/04/14 00:07:29;;;;;;;12.00;8.67;;;13.40;17.10;;;;;;5071522;28;20247;-58
2022/04/14 00:09:55;;;;;;;11.60;8.27;;;13.40;24.00;;;;;;5072882;28;20238;-58
2022/04/14 00:12:22;;;;;;;12.03;9.43;;;13.40;29.40;;;;;;5072725;28;20638;-58
2022/04/14 00:14:50;;;;;;;15.10;9.33;;;13.40;35.90;;;;;;5072753;28;20197;-58
2022/04/14 00:17:17;;;;;;;14.37;9.63;;;13.30;39.30;;;;;;5072381;28;20296;-58
2022/04/14 00:19:43;;;;;;;16.30;10.33;;;13.30;42.00;;;;;;5072554;28;20207;-58
2022/04/14 00:22:10;;;;;;;18.27;10.70;;;13.20;45.50;;;;;;5072507;28;20260;-58
2022/04/14 00:24:37;;;;;;;18.27;11.70;;;13.20;48.50;;;;;;5072218;28;20203;-58
2022/04/14 00:27:04;;;;;;;22.53;14.47;;;13.20;54.70;;;;;;5072317;28;20287;-58
2022/04/14 00:29:31;;;;;;;24.67;14.57;;;13.20;57.80;;;;;;5072450;28;20262;-58
2022/04/14 00:31:59;;;;;;;22.67;15.23;;;13.10;60.20;;;;;;5072555;28;20691;-58
2022/04/14 00:34:26;;;;;;;22.90;15.87;;;13.10;63.00;;;;;;5072347;28;20266;-58
2022/04/14 00:36:52;;;;;;;22.13;15.37;;;13.20;57.50;;;;;;5072035;28;20206;-58
2022/04/14 00:39:19;;;;;;;24.67;14.93;;;13.20;54.10;;;;;;5071969;28;20733;-58
2022/04/14 00:41:46;;;;;;;22.50;15.37;;;13.10;51.60;;;;;;5072522;28;20644;-58
2022/04/14 00:44:12;;;;;;;26.73;16.63;;;13.10;48.70;;;;;;5072598;28;20258;-58
2022/04/14 00:46:39;;;;;;;23.43;15.53;;;13.00;48.10;;;;;;5071818;28;20226;-58
2022/04/14 00:49:07;;;;;;;20.10;14.23;;;13.00;48.90;;;;;;5072196;28;20271;-58
2022/04/14 00:51:34;;;;;;;25.17;15.10;;;13.00;48.30;;;;;;5072009;28;20209;-58
2022/04/14 00:54:00;;;;;;;22.93;14.40;;;12.90;45.40;;;;;;5071871;28;20259;-56
2022/04/14 00:56:27;;;;;;;18.20;11.03;;;12.90;46.80;;;;;;5071706;28;20230;-58
2022/04/14 00:58:54;;;;;;;15.93;10.70;;;12.90;47.90;;;;;;5072103;28;20231;-58
2022/04/14 01:01:21;;;;;;;16.13;11.00;;;12.80;45.40;;;;;;5071964;28;20676;-57
2022/04/14 01:03:49;;;;;;;15.90;10.90;;;12.80;46.80;;;;;;5071802;28;20298;-58
2022/04/14 01:06:19;;;;;;;14.23;10.90;;;12.80;48.70;;;;;;5071387;28;20246;-58
2022/04/14 01:09:16;;;;;;;14.33;10.80;;;12.80;47.00;;;;;;5071609;28;20283;-58
2022/04/14 01:11:35;;;;;;;16.13;9.67;;;12.80;48.00;;;;;;5071836;28;20215;-58
2022/04/14 01:14:01;;;;;;;15.40;10.30;;;12.80;48.30;;;;;;5071813;28;20209;-58
2022/04/14 01:16:28;;;;;;;15.50;9.83;;;12.90;46.60;;;;;;5071602;28;20285;-58
2022/04/14 01:18:55;;;;;;;15.83;10.43;;;12.90;45.40;;;;;;5071204;28;20594;-58
2022/04/14 01:21:23;;;;;;;14.03;10.10;;;12.90;40.00;;;;;;5071860;28;20653;-58
2022/04/14 01:23:52;;;;;;;13.73;10.37;;;12.90;36.70;;;;;;5071659;28;20237;-58
2022/04/14 01:26:20;;;;;;;15.27;10.00;;;12.90;34.60;;;;;;5071469;28;20701;-57
2022/04/14 01:28:46;;;;;;;17.17;10.77;;;12.90;33.70;;;;;;5071761;28;20224;-58
2022/04/14 01:31:13;;;;;;;19.17;11.77;;;12.80;32.90;;;;;;5071441;28;20205;-58
2022/04/14 01:33:40;;;;;;;19.03;10.87;;;12.80;36.60;;;;;;5071871;28;20242;-58
2022/04/14 01:36:06;;;;;;;16.83;11.00;;;12.70;44.10;;;;;;5071287;28;20263;-58
2022/04/14 01:38:34;;;;;;;19.20;11.07;;;12.70;47.60;;;;;;5071694;28;20279;-58
2022/04/14 01:41:02;;;;;;;16.93;10.97;;;12.70;52.10;;;;;;5071697;28;20240;-57
2022/04/14 01:43:29;;;;;;;14.13;10.57;;;12.70;57.10;;;;;;5071840;28;20205;-58
2022/04/14 01:45:56;;;;;;;15.63;10.77;;;12.70;61.60;;;;;;5071012;28;20362;-57
2022/04/14 01:48:22;;;;;;;16.83;10.77;;;12.70;64.30;;;;;;5071908;28;20550;-56
2022/04/14 01:50:49;;;;;;;17.23;10.37;;;12.70;67.00;;;;;;5072041;28;20257;-58
2022/04/14 01:53:16;;;;;;;16.60;10.90;;;12.80;62.10;;;;;;5071674;28;20219;-55
2022/04/14 01:55:43;;;;;;;14.87;10.07;;;12.70;62.70;;;;;;5071311;28;20200;-56
2022/04/14 01:58:11;;;;;;;18.03;11.27;;;12.70;64.70;;;;;;5070818;28;20748;-56
2022/04/14 02:00:37;;;;;;;15.90;10.97;;;12.70;65.70;;;;;;5071352;28;20731;-56
2022/04/14 02:03:04;;;;;;;18.07;11.37;;;12.70;66.60;;;;;;5071212;28;20262;-57
2022/04/14 02:05:31;;;;;;;17.03;11.53;;;12.70;67.00;;;;;;5071420;28;20225;-54
2022/04/14 02:07:57;;;;;;;19.00;11.30;;;12.70;67.70;;;;;;5070887;28;20294;-56
2022/04/14 02:10:24;;;;;;;18.63;11.23;;;12.70;69.40;;;;;;5071400;28;20622;-58
2022/04/14 02:12:51;;;;;;;18.03;12.10;;;12.70;71.30;;;;;;5071412;28;20632;-58
2022/04/14 02:15:19;;;;;;;18.17;11.57;;;12.70;71.40;;;;;;5071020;28;20693;-57
2022/04/14 02:17:46;;;;;;;16.90;11.70;;;12.70;71.90;;;;;;5070784;28;20743;-54
2022/04/14 02:20:12;;;;;;;19.07;11.37;;;12.60;77.50;;;;;;5071198;28;20266;-56
2022/04/14 02:22:40;;;;;;;23.33;11.50;;;12.60;81.30;;;;;;5071217;28;20266;-55
2022/04/14 02:25:07;;;;;;;19.67;12.40;;;12.60;85.70;;;;;;5070983;28;20213;-54
2022/04/14 02:27:34;;;;;;;19.00;12.00;;;12.60;90.90;;;;;;5070593;28;20232;-57
2022/04/14 02:30:01;;;;;;;17.30;11.83;;;12.60;94.00;;;;;;5072765;28;20703;-54
2022/04/14 02:32:29;;;;;;;21.23;12.73;;;12.40;97.10;;;;;;5074690;28;20208;-54
2022/04/14 02:34:56;;;;;;;20.70;12.47;;;12.40;99.90;;;;;;5074645;28;20282;-58
2022/04/14 02:37:22;;;;;;;22.23;13.30;;;12.40;99.90;;;;;;5074280;28;20220;-58
2022/04/14 02:39:49;;;;;;;20.90;13.07;;;12.30;99.90;;;;;;5074614;28;20201;-58
2022/04/14 02:42:16;;;;;;;23.73;13.73;;;12.20;99.90;;;;;;5074237;28;20204;-58
2022/04/14 02:44:42;;;;;;;23.13;14.17;;;12.20;99.90;;;;;;5074739;28;20212;-58
2022/04/14 02:47:09;;;;;;;22.10;13.97;;;12.10;99.90;;;;;;5073945;28;20282;-57
2022/04/14 02:49:37;;;;;;;23.70;14.00;;;12.00;99.90;;;;;;5074652;28;20208;-57
2022/04/14 02:52:04;;;;;;;24.87;14.47;;;11.90;99.90;;;;;;5074301;28;20209;-57
2022/04/14 02:54:37;;;;;;;25.20;14.70;;;11.80;99.90;;;;;;5074389;28;20209;-58
2022/04/14 02:57:04;;;;;;;24.67;16.13;;;11.80;99.90;;;;;;5073975;28;20232;-58
2022/04/14 02:59:31;;;;;;;25.70;15.40;;;11.90;99.90;;;;;;5074501;28;20281;-57
2022/04/14 03:01:58;;;;;;;26.70;15.83;;;11.90;99.90;;;;;;5074349;28;20220;-58
2022/04/14 03:04:24;;;;;;;24.50;15.00;;;11.90;99.90;;;;;;5074106;28;20213;-58
2022/04/14 03:06:53;;;;;;;25.73;15.03;;;11.90;99.90;;;;;;5073763;28;20266;-58
2022/04/14 03:09:20;;;;;;;26.77;16.90;;;12.00;99.90;;;;;;5073800;28;20242;-58
2022/04/14 03:11:47;;;;;;;26.10;15.47;;;12.10;99.90;;;;;;5074077;28;20233;-58
2022/04/14 03:14:13;;;;;;;23.77;15.13;;;12.10;99.90;;;;;;5074071;28;20208;-58
2022/04/14 03:16:40;;;;;;;31.10;16.90;;;12.10;99.90;;;;;;5073522;28;20672;-58
2022/04/14 03:19:07;;;;;;;29.43;15.70;;;12.10;99.90;;;;;;5073739;28;20262;-55
2022/04/14 03:21:34;;;;;;;27.73;15.67;;;12.00;99.90;;;;;;5073776;28;20213;-57
2022/04/14 03:24:02;;;;;;;30.87;16.23;;;11.90;99.90;;;;;;5073637;28;20205;-55
2022/04/14 03:26:29;;;;;;;27.80;17.63;;;11.90;99.90;;;;;;5073370;28;20224;-57
2022/04/14 03:28:56;;;;;;;32.30;18.70;;;11.80;99.90;;;;;;5073819;28;20278;-57
2022/04/14 03:31:22;;;;;;;32.63;18.10;;;11.80;99.90;;;;;;5073631;28;20235;-57
2022/04/14 03:33:49;;;;;;;30.47;18.87;;;11.80;99.90;;;;;;5073644;28;20582;-54
2022/04/14 03:36:16;;;;;;;30.53;17.77;;;11.80;99.90;;;;;;5072995;28;20265;-58
2022/04/14 03:38:42;;;;;;;30.97;17.30;;;11.90;99.90;;;;;;5073278;28;20229;-58
2022/04/14 03:41:10;;;;;;;31.83;18.30;;;11.90;99.90;;;;;;5073531;28;20208;-51
2022/04/14 03:43:37;;;;;;;30.23;18.57;;;11.90;99.90;;;;;;5073388;28;20674;-58
2022/04/14 03:46:04;;;;;;;34.83;19.33;;;11.80;99.90;;;;;;5073034;28;20791;-58
2022/04/14 03:48:31;;;;;;;33.77;19.83;;;11.80;99.90;;;;;;5072946;28;20282;-58
2022/04/14 03:50:58;;;;;;;41.30;22.17;;;11.70;99.90;;;;;;5073270;28;20222;-55
2022/04/14 03:53:25;;;;;;;34.63;20.47;;;11.80;99.90;;;;;;5073425;28;20262;-58
2022/04/14 03:55:52;;;;;;;41.07;22.80;;;11.80;99.90;;;;;;5073384;28;20208;-58
2022/04/14 03:58:20;;;;;;;36.87;21.93;;;11.90;99.90;;;;;;5072933;28;20314;-58
2022/04/14 04:00:46;;;;;;;36.37;21.80;;;11.90;99.90;;;;;;5073139;28;20203;-58
2022/04/14 04:03:14;;;;;;;39.83;22.60;;;11.80;99.90;;;;;;5072791;28;20273;-57
2022/04/14 04:05:41;;;;;;;38.17;22.73;;;11.80;99.90;;;;;;5072750;28;20626;-59
2022/04/14 04:08:08;;;;;;;39.83;22.70;;;11.70;99.90;;;;;;5072697;28;20267;-59
2022/04/14 04:10:35;;;;;;;38.53;23.00;;;11.80;99.90;;;;;;5072807;28;20208;-57
2022/04/14 04:13:02;;;;;;;42.27;24.57;;;11.80;99.90;;;;;;5072958;28;20254;-59
2022/04/14 04:15:30;;;;;;;41.00;23.87;;;11.90;99.90;;;;;;5072562;28;20205;-58
2022/04/14 04:17:57;;;;;;;39.80;22.77;;;11.90;99.90;;;;;;5072264;28;20228;-57
2022/04/14 04:20:25;;;;;;;38.70;21.87;;;11.90;99.90;;;;;;5072368;28;20213;-56
2022/04/14 04:22:51;;;;;;;35.47;22.23;;;11.90;99.90;;;;;;5072563;28;20209;-59
2022/04/14 04:25:18;;;;;;;35.90;20.50;;;11.90;99.90;;;;;;5072368;28;20204;-59
2022/04/14 04:27:45;;;;;;;34.93;21.83;;;11.90;99.90;;;;;;5072150;28;20227;-59
2022/04/14 04:30:12;;;;;;;38.53;22.27;;;11.90;99.90;;;;;;5072551;28;20238;-59
2022/04/14 04:32:40;;;;;;;36.60;22.53;;;11.90;99.90;;;;;;5072042;28;20686;-59
2022/04/14 04:35:07;;;;;;;37.47;22.00;;;12.00;99.90;;;;;;5072619;28;20208;-57
2022/04/14 04:37:34;;;;;;;36.63;22.17;;;11.90;99.90;;;;;;5071860;28;20221;-57
2022/04/14 04:40:01;;;;;;;46.17;23.87;;;11.80;99.90;;;;;;5072595;28;20208;-59
2022/04/14 04:42:28;;;;;;;35.00;21.53;;;11.70;99.90;;;;;;5072263;28;20211;-58
2022/04/14 04:44:54;;;;;;;39.97;23.40;;;11.70;99.90;;;;;;5071898;28;20201;-57
2022/04/14 04:47:21;;;;;;;38.97;23.07;;;11.70;99.90;;;;;;5069606;28;20299;-60
2022/04/14 04:49:49;;;;;;;39.40;24.07;;;11.70;99.90;;;;;;5072237;28;20220;-59
2022/04/14 04:52:16;;;;;;;48.20;23.30;;;11.70;99.90;;;;;;5072373;28;20215;-59
2022/04/14 04:54:43;;;;;;;46.83;24.27;;;11.70;99.90;;;;;;5072357;28;20204;-59
2022/04/14 04:57:09;;;;;;;43.20;23.10;;;11.70;99.90;;;;;;5072042;28;20297;-59
2022/04/14 04:59:36;;;;;;;41.40;23.50;;;11.70;99.90;;;;;;5071581;28;20209;-59
2022/04/14 05:02:03;;;;;;;40.67;24.57;;;11.60;99.90;;;;;;5072142;28;20213;-59
2022/04/14 05:04:30;;;;;;;42.70;24.43;;;11.60;99.90;;;;;;5071667;28;20212;-59
2022/04/14 05:06:58;;;;;;;47.57;25.03;;;11.60;99.90;;;;;;5071669;28;20258;-60
2022/04/14 05:09:25;;;;;;;47.67;24.97;;;11.60;99.90;;;;;;5071867;28;20282;-59
2022/04/14 05:11:51;;;;;;;42.80;24.17;;;11.60;99.90;;;;;;5071509;28;20576;-58
2022/04/14 05:14:18;;;;;;;45.73;24.23;;;11.70;99.90;;;;;;5071572;28;20215;-59
2022/04/14 05:16:45;;;;;;;39.70;23.30;;;11.70;99.90;;;;;;5071409;28;20200;-57
2022/04/14 05:19:11;;;;;;;43.97;23.97;;;11.80;99.90;;;;;;5071965;28;20651;-59
2022/04/14 05:21:38;;;;;;;42.03;24.70;;;11.80;99.90;;;;;;5071397;28;20220;-59
2022/04/14 05:24:07;;;;;;;46.67;24.70;;;11.80;99.90;;;;;;5071775;28;20257;-59
2022/04/14 05:26:34;;;;;;;44.03;24.03;;;11.80;99.90;;;;;;5071081;28;20664;-59
2022/04/14 05:29:00;;;;;;;44.07;24.83;;;11.80;99.90;;;;;;5071244;28;20726;-56
2022/04/14 05:31:28;;;;;;;42.70;24.10;;;11.80;99.90;;;;;;5071442;28;20671;-61
2022/04/14 05:33:55;;;;;;;45.43;23.00;;;11.80;99.90;;;;;;5071127;28;20211;-61
2022/04/14 05:36:21;;;;;;;47.13;24.57;;;11.90;99.90;;;;;;5071299;28;20265;-61
2022/04/14 05:38:48;;;;;;;46.30;24.93;;;12.00;99.90;;;;;;5070778;28;20225;-60
2022/04/14 05:41:16;;;;;;;39.73;25.43;;;12.10;99.90;;;;;;5071415;28;20212;-58
2022/04/14 05:43:42;;;;;;;43.07;24.33;;;12.10;99.90;;;;;;5071221;28;20227;-61
2022/04/14 05:46:09;;;;;;;44.20;24.77;;;12.00;99.90;;;;;;5071162;28;20212;-62
2022/04/14 05:48:36;;;;;;;39.90;23.67;;;12.10;99.90;;;;;;5071327;28;20236;-61
2022/04/14 05:51:02;;;;;;;44.03;25.33;;;12.10;99.90;;;;;;5071203;28;20200;-61
2022/04/14 05:53:30;;;;;;;41.50;23.83;;;12.10;99.90;;;;;;5070901;28;20258;-60
2022/04/14 05:55:57;;;;;;;39.53;23.83;;;12.10;99.90;;;;;;5070271;28;20255;-59
2022/04/14 05:58:25;;;;;;;40.93;24.13;;;12.20;99.90;;;;;;5071538;28;20298;-61
2022/04/14 06:00:52;;;;;;;43.23;24.10;;;12.20;99.90;;;;;;5070991;28;20259;-61
2022/04/14 06:03:19;;;;;;;46.43;25.33;;;12.20;99.90;;;;;;5071344;28;20212;-61
2022/04/14 06:05:46;;;;;;;39.13;25.07;;;12.30;99.90;;;;;;5073818;28;20675;-65
2022/04/14 06:08:14;;;;;;;47.03;25.23;;;12.20;99.90;;;;;;5053392;28;20232;-60
2022/04/14 06:10:40;;;;;;;41.27;25.23;;;12.20;99.90;;;;;;5071113;28;20212;-61
2022/04/14 06:13:07;;;;;;;33.83;21.07;;;12.30;99.90;;;;;;5075057;28;20259;-61
2022/04/14 06:15:35;;;;;;;44.03;25.17;;;12.30;99.90;;;;;;5075628;28;20204;-62
2022/04/14 06:18:02;;;;;;;47.13;27.10;;;12.50;99.90;;;;;;5073819;28;20225;-61
2022/04/14 06:20:28;;;;;;;42.30;25.53;;;12.70;99.90;;;;;;5074893;28;20216;-62
2022/04/14 06:22:58;;;;;;;42.90;23.53;;;12.80;99.90;;;;;;5074109;28;20291;-62
2022/04/14 06:25:26;;;;;;;36.83;23.37;;;12.90;99.90;;;;;;5074300;28;20209;-61
2022/04/14 06:27:55;;;;;;;36.73;23.77;;;12.90;99.90;;;;;;5073755;28;20228;-63
2022/04/14 06:30:22;;;;;;;35.33;21.73;;;13.00;99.90;;;;;;5073984;28;20611;-65
2022/04/14 06:32:58;;;;;;;38.30;22.73;;;13.00;99.90;;;;;;5074436;28;20295;-63
2022/04/14 06:35:25;;;;;;;39.70;23.27;;;13.10;99.90;;;;;;5074061;28;20636;-63
2022/04/14 06:37:52;;;;;;;42.27;23.80;;;13.10;99.90;;;;;;5073036;28;20321;-63
2022/04/14 06:40:19;;;;;;;44.13;24.80;;;13.20;99.90;;;;;;5073240;28;20255;-63
2022/04/14 06:42:46;;;;;;;40.10;22.90;;;13.20;99.90;;;;;;5054259;28;20202;-63
2022/04/14 06:45:13;;;;;;;35.17;21.17;;;13.30;99.90;;;;;;5054069;28;20217;-65
2022/04/14 06:47:40;;;;;;;41.93;23.20;;;13.30;99.90;;;;;;5053287;28;20233;-66
2022/04/14 06:50:09;;;;;;;37.00;21.87;;;13.40;99.90;;;;;;5054156;28;20213;-64
2022/04/14 06:52:38;;;;;;;38.53;22.47;;;13.50;99.90;;;;;;5054034;28;20213;-64
2022/04/14 06:55:05;;;;;;;38.80;21.53;;;13.60;99.90;;;;;;5053476;28;20297;-62
2022/04/14 06:57:32;;;;;;;41.10;23.30;;;13.70;99.90;;;;;;5053039;28;20765;-63
2022/04/14 06:59:59;;;;;;;38.47;23.53;;;13.90;99.90;;;;;;5053213;28;20250;-61
2022/04/14 07:02:25;;;;;;;39.00;22.33;;;14.00;99.90;;;;;;5053461;28;20210;-64
2022/04/14 07:04:52;;;;;;;41.80;22.50;;;13.90;99.90;;;;;;5053332;28;20752;-64
2022/04/14 07:07:20;;;;;;;38.80;22.10;;;13.80;99.90;;;;;;5052885;28;20778;-64
2022/04/14 07:09:47;;;;;;;40.37;23.27;;;13.90;99.90;;;;;;5053356;28;20567;-63
2022/04/14 07:12:14;;;;;;;43.07;23.87;;;13.90;99.90;;;;;;5053222;28;20214;-65
2022/04/14 07:14:40;;;;;;;40.87;24.90;;;13.90;99.90;;;;;;5053525;28;20214;-64
2022/04/14 07:17:07;;;;;;;36.73;22.07;;;13.90;99.90;;;;;;5051887;28;20222;-63
2022/04/14 07:19:34;;;;;;;41.00;24.50;;;13.90;99.90;;;;;;5053188;28;20685;-64
2022/04/14 07:22:01;;;;;;;45.80;25.63;;;14.00;99.90;;;;;;5053351;28;20217;-65
2022/04/14 07:24:29;;;;;;;44.60;23.57;;;14.10;99.90;;;;;;5052823;28;20206;-64
2022/04/14 07:26:55;;;;;;;47.27;26.10;;;14.00;99.90;;;;;;5052489;28;20582;-61
2022/04/14 07:29:22;;;;;;;45.77;25.43;;;14.10;99.90;;;;;;5052340;28;20212;-65
2022/04/14 07:31:50;;;;;;;46.03;24.80;;;14.10;99.90;;;;;;5052674;28;20222;-65
2022/04/14 07:34:17;;;;;;;45.17;25.60;;;14.10;99.90;;;;;;5053257;28;20579;-64
2022/04/14 07:36:44;;;;;;;46.67;25.47;;;14.10;99.90;;;;;;5052300;28;20209;-65
2022/04/14 07:39:10;;;;;;;42.83;25.10;;;14.00;99.90;;;;;;5052421;28;20284;-65
2022/04/14 07:41:39;;;;;;;47.47;26.10;;;13.90;99.90;;;;;;5052517;28;20207;-64
2022/04/14 07:44:06;;;;;;;51.13;26.47;;;13.90;99.90;;;;;;5052620;28;20206;-65
2022/04/14 07:46:35;;;;;;;46.10;25.07;;;13.80;99.90;;;;;;5052093;28;20214;-65
2022/04/14 07:49:02;;;;;;;45.60;25.37;;;13.70;99.90;;;;;;5054460;28;20244;-63
2022/04/14 07:51:29;;;;;;;48.20;26.50;;;13.60;99.90;;;;;;5073036;28;20205;-62
2022/04/14 07:53:55;;;;;;;47.80;27.03;;;13.50;99.90;;;;;;5072431;28;20218;-62
2022/04/14 07:56:22;;;;;;;54.93;29.00;;;13.50;99.90;;;;;;5072339;28;20269;-64
2022/04/14 07:58:50;;;;;;;50.37;26.93;;;13.40;99.90;;;;;;5071161;28;20231;-62
2022/04/14 08:01:19;;;;;;;58.37;29.37;;;13.50;99.90;;;;;;5072684;28;20220;-64
2022/04/14 08:03:46;;;;;;;55.03;29.50;;;13.50;99.90;;;;;;5072530;28;20216;-63
2022/04/14 08:06:14;;;;;;;59.27;29.47;;;13.60;99.90;;;;;;5071810;28;20256;-64
2022/04/14 08:08:41;;;;;;;64.10;31.23;;;13.70;99.90;;;;;;5071619;28;20328;-64
2022/04/14 08:11:09;;;;;;;60.10;29.87;;;13.80;99.90;;;;;;5072141;28;20205;-63
2022/04/14 08:13:38;;;;;;;56.77;29.70;;;14.00;99.90;;;;;;5072075;28;20205;-62
2022/04/14 08:16:06;;;;;;;59.60;29.57;;;14.20;99.90;;;;;;5072142;28;20260;-61
2022/04/14 08:18:35;;;;;;;54.20;31.07;;;14.10;99.90;;;;;;5071395;28;20932;-61
2022/04/14 08:21:02;;;;;;;52.37;29.40;;;14.30;99.90;;;;;;5071869;28;20294;-61
2022/04/14 08:23:29;;;;;;;56.83;29.50;;;14.50;99.90;;;;;;5071856;28;20586;-64
2022/04/14 08:25:56;;;;;;;54.20;28.70;;;14.60;99.90;;;;;;5071629;28;20215;-62
2022/04/14 08:28:22;;;;;;;57.80;29.43;;;14.50;99.90;;;;;;5069977;28;20767;-64
2022/04/14 08:30:50;;;;;;;57.00;31.00;;;14.70;99.90;;;;;;5071709;28;20212;-62
2022/04/14 08:33:20;;;;;;;59.90;32.70;;;14.90;99.90;;;;;;5071787;28;20748;-62
2022/04/14 08:35:47;;;;;;;49.23;29.33;;;15.00;99.90;;;;;;5071653;28;20207;-62
2022/04/14 08:38:14;;;;;;;56.57;32.03;;;15.30;99.90;;;;;;5070779;28;20634;-63
2022/04/14 08:40:42;;;;;;;53.13;31.70;;;15.40;99.90;;;;;;5071021;28;20209;-63
2022/04/14 08:43:10;;;;;;;56.97;32.27;;;15.50;99.90;;;;;;5071836;28;20251;-61
2022/04/14 08:45:44;;;;;;;56.10;29.97;;;15.60;99.90;;;;;;5071302;28;20216;-62
2022/04/14 08:48:12;;;;;;;49.73;30.17;;;15.70;99.90;;;;;;5070495;28;20233;-63
2022/04/14 08:50:42;;;;;;;53.80;30.50;;;16.00;99.90;;;;;;5071405;28;20638;-62
2022/04/14 08:53:09;;;;;;;51.33;30.13;;;16.20;99.90;;;;;;5070998;28;20741;-62
2022/04/14 08:55:40;;;;;;;51.90;30.77;;;16.20;99.90;;;;;;5071754;28;20235;-62
2022/04/14 08:58:12;;;;;;;44.63;28.97;;;16.50;99.90;;;;;;5070686;28;20248;-63
2022/04/14 09:00:40;;;;;;;46.47;27.43;;;16.60;99.90;;;;;;5071143;28;20209;-61
2022/04/14 09:03:07;;;;;;;46.60;29.50;;;16.70;99.90;;;;;;5071466;28;20216;-62
2022/04/14 09:05:33;;;;;;;39.27;24.10;;;16.90;99.90;;;;;;5070745;28;20825;-61
2022/04/14 09:08:02;;;;;;;40.83;24.77;;;17.00;99.90;;;;;;5070556;28;20229;-62
2022/04/14 09:10:29;;;;;;;39.20;23.90;;;17.20;62.00;;;;;;5070417;28;20227;-66
2022/04/14 09:12:56;;;;;;;38.53;22.90;;;17.20;1.00;;;;;;5071320;28;20246;-63
2022/04/14 09:15:23;;;;;;;32.33;21.80;;;17.20;29.20;;;;;;5071305;28;20205;-64
2022/04/14 09:17:49;;;;;;;31.97;20.10;;;17.10;1.00;;;;;;5070049;28;20230;-64
2022/04/14 09:20:34;;;;;;;30.70;21.47;;;17.00;99.90;;;;;;5070582;28;20216;-63
2022/04/14 09:23:21;;;;;;;30.13;19.53;;;17.20;1.00;;;;;;5070678;28;20225;-63
2022/04/14 09:25:50;;;;;;;32.57;20.37;;;17.40;63.80;;;;;;5070806;28;20298;-65
2022/04/14 09:28:19;;;;;;;25.10;16.43;;;17.40;95.20;;;;;;5069979;28;20275;-65
2022/04/14 09:31:03;;;;;;;26.97;18.07;;;17.40;99.90;;;;;;5070765;28;20266;-65
2022/04/14 09:33:32;;;;;;;25.63;18.27;;;17.10;1.00;;;;;;5071005;28;20212;-63
2022/04/14 09:36:09;;;;;;;28.27;18.40;;;17.00;1.00;;;;;;5070330;28;20209;-62
2022/04/14 09:38:57;;;;;;;29.40;19.93;;;17.00;99.90;;;;;;5071100;28;20632;-64
2022/04/14 09:41:35;;;;;;;30.00;19.40;;;17.00;99.90;;;;;;5074869;28;20212;-62
2022/04/14 09:44:05;;;;;;;32.70;21.27;;;17.10;99.90;;;;;;5075393;28;20208;-63
2022/04/14 09:46:32;;;;;;;27.47;19.47;;;17.40;99.90;;;;;;5074190;28;20378;-63
2022/04/14 09:49:00;;;;;;;34.67;22.37;;;17.70;99.90;;;;;;5073956;28;20247;-60
2022/04/14 09:51:27;;;;;;;32.67;21.27;;;17.80;99.90;;;;;;5074507;28;20247;-61
2022/04/14 09:54:03;;;;;;;34.07;22.13;;;18.00;52.30;;;;;;5074892;28;20249;-61
2022/04/14 09:56:40;;;;;;;32.27;22.20;;;17.80;18.60;;;;;;5074905;28;20211;-61
2022/04/14 09:59:08;;;;;;;32.23;21.97;;;17.60;1.00;;;;;;5074959;28;20200;-60
2022/04/14 10:01:35;;;;;;;30.37;22.13;;;17.50;1.00;;;;;;5074681;28;20208;-61
2022/04/14 10:04:02;;;;;;;33.03;24.07;;;17.10;1.00;;;;;;5074063;28;20640;-63
2022/04/14 10:06:29;;;;;;;31.63;23.17;;;17.00;87.00;;;;;;5074375;28;20205;-62
2022/04/14 10:08:55;;;;;;;35.43;22.97;;;17.30;1.00;;;;;;5073561;28;20229;-66
2022/04/14 10:11:29;;;;;;;33.63;22.60;;;17.70;1.00;;;;;;5074134;28;20205;-62
2022/04/14 10:14:11;;;;;;;32.13;22.83;;;18.00;1.00;;;;;;5074563;28;20215;-57
2022/04/14 10:16:40;;;;;;;28.77;20.37;;;18.20;1.00;;;;;;5073539;28;20622;-60
2022/04/14 10:19:08;;;;;;;28.33;19.60;;;18.10;99.90;;;;;;5073957;28;20295;-59
2022/04/14 10:21:35;;;;;;;29.93;21.23;;;18.30;99.90;;;;;;5073523;28;20679;-58
2022/04/14 10:24:03;;;;;;;29.57;21.17;;;18.50;99.90;;;;;;5074127;28;20208;-60
2022/04/14 10:26:32;;;;;;;28.60;20.77;;;18.70;99.90;;;;;;5073746;28;20212;-61
2022/04/14 10:29:00;;;;;;;35.20;23.43;;;18.90;99.90;;;;;;5072655;28;20233;-60
2022/04/14 10:31:26;;;;;;;31.47;22.90;;;19.00;99.90;;;;;;5074007;28;20213;-59
2022/04/14 10:33:54;;;;;;;30.07;22.30;;;19.00;99.90;;;;;;5073754;28;20857;-59
2022/04/14 10:36:21;;;;;;;27.53;20.63;;;18.90;99.90;;;;;;5073571;28;20720;-61
2022/04/14 10:38:49;;;;;;;27.50;19.77;;;18.90;99.90;;;;;;5072586;28;20224;-59
2022/04/14 10:41:19;;;;;;;31.37;21.47;;;18.70;99.90;;;;;;5073336;28;20973;-61
2022/04/14 10:43:48;;;;;;;32.30;22.17;;;18.80;99.90;;;;;;5074405;28;20298;-59
2022/04/14 10:46:16;;;;;;;29.40;22.50;;;18.80;99.90;;;;;;5073369;28;20208;-59
2022/04/14 10:48:44;;;;;;;30.40;20.97;;;18.70;99.90;;;;;;5073201;28;20243;-59
2022/04/14 10:51:23;;;;;;;24.37;18.80;;;18.70;99.90;;;;;;5072528;28;20246;-57
2022/04/14 10:53:52;;;;;;;28.50;20.47;;;18.80;99.90;;;;;;5073475;28;20245;-60
2022/04/14 10:56:46;;;;;;;30.43;21.70;;;19.00;99.90;;;;;;5073282;28;20629;-59
2022/04/14 10:59:15;;;;;;;31.63;22.20;;;18.90;99.90;;;;;;5066563;28;20209;-62
2022/04/14 11:01:57;;;;;;;24.43;19.03;;;18.60;99.90;;;;;;5073145;28;20205;-63
2022/04/14 11:04:35;;;;;;;26.50;18.70;;;18.70;99.90;;;;;;5072748;28;20634;-62
2022/04/14 11:07:02;;;;;;;24.47;18.10;;;18.90;99.90;;;;;;5072719;28;20300;-63
2022/04/14 11:09:59;;;;;;;25.17;17.53;;;19.00;99.90;;;;;;5072108;28;20270;-62
2022/04/14 11:12:29;;;;;;;22.47;17.00;;;18.90;99.90;;;;;;5073226;28;20208;-65
2022/04/14 11:14:59;;;;;;;22.77;16.03;;;19.10;99.90;;;;;;5073181;28;20633;-62
2022/04/14 11:18:03;;;;;;;21.07;15.47;;;19.20;99.90;;;;;;5072922;28;20228;-61
2022/04/14 11:20:56;;;;;;;26.13;17.83;;;19.60;99.90;;;;;;5072699;28;20232;-61
2022/04/14 11:23:26;;;;;;;20.57;15.23;;;19.90;99.90;;;;;;5064354;28;20687;-62
2022/04/14 11:25:54;;;;;;;19.47;13.20;;;20.00;99.90;;;;;;5072871;28;20208;-61
2022/04/14 11:28:25;;;;;;;18.13;12.30;;;20.10;99.90;;;;;;5072032;28;20237;-60
2022/04/14 11:30:56;;;;;;;17.17;12.83;;;20.00;99.90;;;;;;5073224;28;20552;-61
2022/04/14 11:33:27;;;;;;;13.57;9.50;;;19.70;99.90;;;;;;5072775;28;20201;-61
2022/04/14 11:35:55;;;;;;;13.10;9.00;;;19.40;99.90;;;;;;5072802;28;20211;-61
2022/04/14 11:38:58;;;;;;;10.63;7.83;;;18.90;99.90;;;;;;5072148;28;20248;-63
2022/04/14 11:41:32;;;;;;;10.40;7.87;;;18.80;99.90;;;;;;5069566;28;20615;-62
2022/04/14 11:44:00;;;;;;;9.27;6.83;;;18.70;99.90;;;;;;5072537;28;20741;-63
2022/04/14 11:46:28;;;;;;;11.47;7.67;;;18.90;99.90;;;;;;5072188;28;20208;-63
2022/04/14 11:48:55;;;;;;;13.27;9.30;;;19.30;99.90;;;;;;5071638;28;20229;-63
2022/04/14 11:51:22;;;;;;;14.63;9.17;;;19.60;99.90;;;;;;5072275;28;20204;-63
2022/04/14 11:53:53;;;;;;;12.10;8.97;;;19.90;99.90;;;;;;5072514;28;20625;-63
2022/04/14 11:56:20;;;;;;;15.43;9.43;;;20.10;99.90;;;;;;5071727;28;20231;-62
2022/04/14 11:58:47;;;;;;;16.80;11.00;;;20.30;99.90;;;;;;5071503;28;20224;-62
2022/04/14 12:01:14;;;;;;;15.67;11.63;;;19.60;99.90;;;;;;5072156;28;20205;-62
2022/04/14 12:03:44;;;;;;;14.27;11.30;;;19.40;99.90;;;;;;5071201;28;20208;-63
2022/04/14 12:06:12;;;;;;;15.87;10.10;;;19.30;99.90;;;;;;5071963;28;20236;-62
2022/04/14 12:08:39;;;;;;;15.07;11.13;;;19.20;99.90;;;;;;5070644;28;20233;-63
2022/04/14 12:11:11;;;;;;;13.87;11.37;;;19.00;99.90;;;;;;5071241;28;20258;-65
2022/04/14 12:13:39;;;;;;;16.60;11.13;;;18.90;99.90;;;;;;5072192;28;20292;-65
2022/04/14 12:16:08;;;;;;;15.77;12.13;;;18.90;99.90;;;;;;5071470;28;20300;-64
2022/04/14 12:18:35;;;;;;;15.13;11.80;;;18.90;99.90;;;;;;5071194;28;20302;-63
2022/04/14 12:21:05;;;;;;;13.33;11.17;;;18.70;99.90;;;;;;5071147;28;20251;-63
2022/04/14 12:23:32;;;;;;;15.13;11.17;;;18.50;99.90;;;;;;5071789;28;20205;-64
2022/04/14 12:26:00;;;;;;;12.97;10.03;;;18.60;99.90;;;;;;5071683;28;20239;-63
2022/04/14 12:28:27;;;;;;;12.53;9.57;;;18.40;99.90;;;;;;5071115;28;20228;-64
2022/04/14 12:30:53;;;;;;;13.83;9.90;;;18.30;99.90;;;;;;5071770;28;20290;-65
2022/04/14 12:33:27;;;;;;;12.67;9.20;;;18.20;99.90;;;;;;5071506;28;20201;-66